Terminal Aerodrome Forecast
Issued by NWS

Home | Current Version | Previous Version | Text Only | Print | Product List | Glossary Off
Versions: 1 2 3 4 5 6 7 8 9 10 11 12 13 14 15 16 17 18 19 20 21 22 23 24 25 26 27 28 29

122
FTUS43 KGRB 280721 AAA
TAFMTW
TAF AMD
KMTW 280721Z 2807/2906 02003KT P6SM SCT010 BKN025
      TEMPO 2807/2811 BKN010
     FM281500 02010G17KT P6SM FEW010 SCT025
     FM282200 02006KT P6SM SKC=

USA.gov is the U.S. government's official web portal to all federal, state and local government web resources and services.